Time;durP1;ratioP1;P1;durP2;ratioP2;P2;SDS_P1;SDS_P2;PMS_P1;PMS_P2;Temp;Humidity;BMP_temperature;BMP_pressure;BME280_temperature;BME280_humidity;BME280_pressure;Samples;Min_cycle;Max_cycle;Signal;HPM_P1;HPM_P2
2021/12/10 00:02:34;;;;;;;10.43;6.85;;;8.20;99.90;;;;;;4934553;29;20046;-71
2021/12/10 00:05:48;;;;;;;9.07;6.03;;;8.10;99.90;;;;;;4934943;29;20062;-71
2021/12/10 00:09:02;;;;;;;9.98;6.20;;;8.10;99.90;;;;;;4934374;29;20035;-72
2021/12/10 00:12:17;;;;;;;10.05;5.28;;;8.00;99.90;;;;;;4935049;29;20039;-73
2021/12/10 00:15:26;;;;;;;7.93;4.63;;;8.00;99.90;;;;;;4935157;29;20046;-73
2021/12/10 00:18:35;;;;;;;7.93;3.90;;;7.90;99.90;;;;;;4934497;29;20047;-73
2021/12/10 00:21:40;;;;;;;5.88;4.25;;;7.80;99.90;;;;;;4934889;29;20046;-72
2021/12/10 00:24:46;;;;;;;8.63;3.90;;;7.90;99.90;;;;;;4934548;29;20046;-73
2021/12/10 00:27:53;;;;;;;6.30;3.85;;;7.90;99.90;;;;;;4934582;29;20054;-71
2021/12/10 00:31:14;;;;;;;6.82;3.72;;;7.80;99.90;;;;;;4934486;29;20051;-72
2021/12/10 00:34:39;;;;;;;9.57;4.63;;;7.70;99.90;;;;;;4934685;29;20047;-72
2021/12/10 00:37:43;;;;;;;8.82;4.65;;;7.70;99.90;;;;;;4933406;29;20101;-72
2021/12/10 00:40:48;;;;;;;9.40;4.43;;;7.80;99.90;;;;;;4934283;29;20045;-73
2021/12/10 00:43:52;;;;;;;7.05;4.00;;;7.90;99.90;;;;;;4934391;29;20057;-72
2021/12/10 00:46:56;;;;;;;4.90;3.10;;;8.00;99.90;;;;;;4934076;29;20059;-71
2021/12/10 00:50:00;;;;;;;6.10;2.50;;;8.10;99.90;;;;;;4934498;29;20396;-71
2021/12/10 00:53:05;;;;;;;5.82;2.40;;;8.10;99.90;;;;;;4922634;29;20043;-72
2021/12/10 00:56:10;;;;;;;6.80;1.95;;;8.20;99.90;;;;;;4934595;29;20289;-70
2021/12/10 00:59:17;;;;;;;3.20;1.80;;;8.10;99.90;;;;;;4922377;29;20513;-72
2021/12/10 01:02:24;;;;;;;3.90;1.80;;;8.20;99.90;;;;;;4934111;29;20039;-73
2021/12/10 01:05:28;;;;;;;5.30;1.83;;;8.00;99.90;;;;;;4934082;29;20514;-72
2021/12/10 01:08:34;;;;;;;5.70;1.73;;;7.90;99.90;;;;;;4933879;29;20036;-72
2021/12/10 01:11:42;;;;;;;5.15;2.25;;;7.80;99.90;;;;;;4934231;29;20503;-73
2021/12/10 01:25:23;;;;;;;6.85;2.70;;;7.30;99.90;;;;;;4933457;29;20051;-73
2021/12/10 01:28:27;;;;;;;6.28;2.42;;;7.30;99.90;;;;;;4934209;29;20071;-72
2021/12/10 01:31:31;;;;;;;4.35;2.17;;;7.30;99.90;;;;;;4933935;29;20041;-72
2021/12/10 01:34:36;;;;;;;5.70;2.65;;;7.20;99.90;;;;;;4932746;29;20048;-71
2021/12/10 01:37:40;;;;;;;8.52;3.00;;;7.20;99.90;;;;;;4933652;29;20043;-72
2021/12/10 01:40:48;;;;;;;7.03;3.72;;;7.20;99.90;;;;;;4934045;29;20055;-73
2021/12/10 01:43:59;;;;;;;6.55;2.75;;;7.10;99.90;;;;;;4933837;29;20043;-72
2021/12/10 01:47:07;;;;;;;6.43;3.17;;;7.20;99.90;;;;;;4933518;29;20059;-73
2021/12/10 01:50:11;;;;;;;7.72;3.80;;;7.10;99.90;;;;;;4933813;29;20036;-72
2021/12/10 01:53:19;;;;;;;6.82;3.78;;;7.10;99.90;;;;;;4933549;29;20054;-71
2021/12/10 01:56:29;;;;;;;6.55;4.00;;;7.00;99.90;;;;;;4933798;29;20396;-72
2021/12/10 01:59:36;;;;;;;6.95;3.78;;;7.00;99.90;;;;;;4937626;29;20074;-73
2021/12/10 02:02:46;;;;;;;7.68;4.38;;;7.10;99.90;;;;;;4937224;29;20035;-72
2021/12/10 02:05:51;;;;;;;7.28;3.67;;;7.10;99.90;;;;;;4937091;29;20035;-72
2021/12/10 02:08:55;;;;;;;8.40;4.22;;;7.20;99.90;;;;;;4936960;29;20043;-71
2021/12/10 02:12:00;;;;;;;6.22;3.88;;;7.30;99.90;;;;;;4936507;29;20040;-72
2021/12/10 02:15:05;;;;;;;8.00;4.03;;;7.30;99.90;;;;;;4937174;29;20203;-72
2021/12/10 02:18:12;;;;;;;6.50;4.28;;;7.20;99.90;;;;;;4937084;29;20055;-72
2021/12/10 02:21:19;;;;;;;7.30;3.90;;;7.30;99.90;;;;;;4937360;29;20055;-72
2021/12/10 02:24:23;;;;;;;9.85;3.38;;;7.40;99.90;;;;;;4936642;29;20049;-72
2021/12/10 02:27:28;;;;;;;5.35;3.30;;;7.30;99.90;;;;;;4936975;29;20047;-71
2021/12/10 02:30:32;;;;;;;6.75;3.10;;;7.20;99.90;;;;;;4937140;29;20040;-72
2021/12/10 02:33:36;;;;;;;6.22;3.17;;;7.20;99.90;;;;;;4937205;29;20428;-73
2021/12/10 02:36:42;;;;;;;8.20;3.30;;;7.00;99.90;;;;;;4936602;29;20060;-71
2021/12/10 02:39:46;;;;;;;6.90;3.58;;;6.90;99.90;;;;;;4937626;29;20060;-72
2021/12/10 02:42:51;;;;;;;5.70;3.33;;;6.80;99.90;;;;;;4937274;29;20039;-72
2021/12/10 02:45:59;;;;;;;5.18;3.10;;;6.90;99.90;;;;;;4937054;29;20055;-72
2021/12/10 02:49:05;;;;;;;7.70;3.33;;;7.00;99.90;;;;;;4937337;29;20043;-71
2021/12/10 02:52:10;;;;;;;7.13;3.40;;;7.10;99.90;;;;;;4936999;29;20059;-72
2021/12/10 02:55:16;;;;;;;6.68;3.63;;;7.00;99.90;;;;;;4936529;29;20046;-72
2021/12/10 02:58:20;;;;;;;6.13;3.80;;;7.10;99.90;;;;;;4936052;29;20047;-72
2021/12/10 03:01:28;;;;;;;11.85;4.57;;;7.10;99.90;;;;;;4936240;29;20050;-72
2021/12/10 03:04:34;;;;;;;8.70;5.25;;;6.80;99.90;;;;;;4935947;29;20063;-71
2021/12/10 03:07:39;;;;;;;7.78;4.95;;;6.70;99.90;;;;;;4936168;29;20059;-72
2021/12/10 03:10:44;;;;;;;9.88;4.60;;;6.70;99.90;;;;;;4936088;29;20527;-72
2021/12/10 03:13:48;;;;;;;10.57;4.95;;;6.80;99.90;;;;;;4935879;29;20035;-72
2021/12/10 03:16:56;;;;;;;8.93;4.65;;;6.80;99.90;;;;;;4936165;29;20055;-72
2021/12/10 03:20:05;;;;;;;8.60;4.93;;;6.90;99.90;;;;;;4936088;29;20048;-73
2021/12/10 03:23:11;;;;;;;8.55;4.32;;;7.00;99.90;;;;;;4935839;29;20043;-71
2021/12/10 03:26:19;;;;;;;9.50;5.00;;;6.90;99.90;;;;;;4936062;29;20422;-72
2021/12/10 03:29:27;;;;;;;12.02;5.45;;;6.70;99.90;;;;;;4936113;29;20039;-72
2021/12/10 03:32:32;;;;;;;10.63;4.63;;;6.60;99.90;;;;;;4936836;29;20059;-72
2021/12/10 03:35:42;;;;;;;8.52;5.10;;;6.70;99.90;;;;;;4935752;29;20055;-72
2021/12/10 03:38:48;;;;;;;7.93;5.68;;;6.70;99.90;;;;;;4936239;29;20046;-72
2021/12/10 03:41:54;;;;;;;8.82;5.47;;;6.40;99.90;;;;;;4936015;29;20055;-72
2021/12/10 03:44:58;;;;;;;11.80;6.63;;;6.20;99.90;;;;;;4936036;29;20055;-72
2021/12/10 03:48:08;;;;;;;11.60;6.93;;;6.20;99.90;;;;;;4935698;29;20058;-73
2021/12/10 03:51:22;;;;;;;9.93;6.38;;;6.10;99.90;;;;;;4935826;29;20047;-73
2021/12/10 03:54:27;;;;;;;12.45;6.68;;;6.10;99.90;;;;;;4935366;29;20519;-72
2021/12/10 03:57:31;;;;;;;8.70;5.60;;;6.10;99.90;;;;;;4935356;29;20050;-72
2021/12/10 04:00:40;;;;;;;11.60;6.18;;;6.10;99.90;;;;;;4935820;29;20044;-72
2021/12/10 04:03:46;;;;;;;14.52;6.40;;;6.10;99.90;;;;;;4935514;29;20063;-72
2021/12/10 04:06:52;;;;;;;10.32;5.72;;;6.20;99.90;;;;;;4935040;29;20408;-71
2021/12/10 04:09:57;;;;;;;8.63;5.20;;;6.30;99.90;;;;;;4935469;29;20058;-72
2021/12/10 04:13:00;;;;;;;9.15;4.75;;;6.50;99.90;;;;;;4935511;29;20522;-72
2021/12/10 04:16:04;;;;;;;7.03;4.75;;;6.60;99.90;;;;;;4935152;29;20036;-72
2021/12/10 04:19:11;;;;;;;6.65;4.40;;;6.70;99.90;;;;;;4934337;29;20407;-72
2021/12/10 04:22:18;;;;;;;9.35;4.43;;;6.80;99.90;;;;;;4935577;29;20047;-73
2021/12/10 04:25:24;;;;;;;5.25;3.65;;;6.90;99.90;;;;;;4935561;29;20043;-72
2021/12/10 04:28:29;;;;;;;6.63;3.17;;;6.90;99.90;;;;;;4935056;29;20048;-71
2021/12/10 04:31:33;;;;;;;4.72;2.58;;;6.90;99.90;;;;;;4934205;29;20032;-72
2021/12/10 04:34:38;;;;;;;5.45;2.90;;;6.50;99.90;;;;;;4935021;29;20055;-71
2021/12/10 04:37:42;;;;;;;7.22;2.83;;;6.50;99.90;;;;;;4935058;29;20048;-72
2021/12/10 04:40:48;;;;;;;5.00;2.90;;;6.60;99.90;;;;;;4934931;29;20426;-71
2021/12/10 04:43:53;;;;;;;7.93;3.15;;;6.60;99.90;;;;;;4935033;29;20040;-71
2021/12/10 04:46:57;;;;;;;7.68;3.22;;;6.60;99.90;;;;;;4934652;29;20054;-72
2021/12/10 04:50:03;;;;;;;7.47;3.30;;;6.60;99.90;;;;;;4934915;29;20546;-72
2021/12/10 04:53:09;;;;;;;6.38;3.20;;;6.70;99.90;;;;;;4934430;29;20604;-72
2021/12/10 04:56:13;;;;;;;9.18;4.45;;;6.60;99.90;;;;;;4934590;29;20054;-72
2021/12/10 04:59:18;;;;;;;5.18;3.28;;;6.50;99.90;;;;;;4934726;29;20047;-72
2021/12/10 05:02:21;;;;;;;5.28;3.88;;;6.30;99.90;;;;;;4934467;29;20039;-72
2021/12/10 05:05:27;;;;;;;4.22;3.20;;;6.30;99.90;;;;;;4934753;29;20051;-72
2021/12/10 05:08:34;;;;;;;6.03;3.33;;;6.30;99.90;;;;;;4933850;29;20400;-72
2021/12/10 05:11:39;;;;;;;7.43;3.65;;;6.40;99.90;;;;;;4933742;29;20043;-71
2021/12/10 05:14:43;;;;;;;6.82;3.47;;;6.30;99.90;;;;;;4934703;29;20052;-72
2021/12/10 05:17:49;;;;;;;6.57;3.53;;;6.30;99.90;;;;;;4934177;29;20044;-72
2021/12/10 05:20:54;;;;;;;6.05;3.30;;;6.30;99.90;;;;;;4934356;29;20043;-72
2021/12/10 05:24:00;;;;;;;9.65;4.20;;;6.10;99.90;;;;;;4934427;29;20044;-72
2021/12/10 05:27:05;;;;;;;7.45;3.40;;;6.10;99.90;;;;;;4933168;29;20051;-72
2021/12/10 05:30:15;;;;;;;7.45;4.35;;;6.00;99.90;;;;;;4934071;29;20396;-72
2021/12/10 05:33:20;;;;;;;8.82;3.53;;;6.00;99.90;;;;;;4937931;29;20396;-72
2021/12/10 05:36:24;;;;;;;6.75;4.28;;;5.90;99.90;;;;;;4937895;29;20087;-72
2021/12/10 05:39:28;;;;;;;6.65;3.88;;;6.00;99.90;;;;;;4938170;29;20066;-72
2021/12/10 05:42:32;;;;;;;8.95;5.05;;;6.10;99.90;;;;;;4938505;29;20492;-72
2021/12/10 05:45:36;;;;;;;6.63;3.63;;;6.00;99.90;;;;;;4938376;29;20040;-72
2021/12/10 05:48:41;;;;;;;9.32;4.13;;;5.90;99.90;;;;;;4937992;29;20043;-72
2021/12/10 05:51:45;;;;;;;7.72;4.13;;;5.70;99.90;;;;;;4937615;29;20051;-71
2021/12/10 05:54:52;;;;;;;7.25;4.30;;;5.70;99.90;;;;;;4938222;29;20052;-72
2021/12/10 05:57:56;;;;;;;14.38;4.68;;;5.70;99.90;;;;;;4937034;29;20052;-72
2021/12/10 06:01:09;;;;;;;8.68;4.65;;;5.80;99.90;;;;;;4937912;29;20046;-72
2021/12/10 06:04:13;;;;;;;9.35;4.97;;;5.90;99.90;;;;;;4937717;29;20124;-72
2021/12/10 06:07:18;;;;;;;9.63;5.20;;;5.80;99.90;;;;;;4937847;29;20060;-72
2021/12/10 06:10:23;;;;;;;14.93;5.93;;;5.80;99.90;;;;;;4937528;29;20040;-72
2021/12/10 06:13:28;;;;;;;12.40;5.47;;;5.70;99.90;;;;;;4937987;29;20059;-72
2021/12/10 06:16:33;;;;;;;10.27;6.10;;;5.70;99.90;;;;;;4926058;29;20059;-72
2021/12/10 06:19:37;;;;;;;13.38;6.80;;;5.70;99.90;;;;;;4937783;29;20050;-72
2021/12/10 06:22:41;;;;;;;14.48;8.00;;;5.80;99.90;;;;;;4936277;29;20511;-69
2021/12/10 06:25:45;;;;;;;12.77;8.05;;;5.70;99.90;;;;;;4937057;29;20043;-69
2021/12/10 06:28:49;;;;;;;12.68;7.90;;;5.70;99.90;;;;;;4937029;29;20440;-68
2021/12/10 06:31:55;;;;;;;19.88;10.13;;;5.80;99.90;;;;;;4936773;29;20047;-68
2021/12/10 06:34:59;;;;;;;20.65;10.23;;;5.80;99.90;;;;;;4936606;29;20054;-70
2021/12/10 06:38:03;;;;;;;18.98;10.80;;;5.90;99.90;;;;;;4936315;29;20042;-69
2021/12/10 06:41:08;;;;;;;19.77;11.02;;;5.80;99.90;;;;;;4934748;29;20046;-68
2021/12/10 06:44:12;;;;;;;18.90;10.65;;;5.90;99.90;;;;;;4936219;29;20038;-69
2021/12/10 06:47:16;;;;;;;18.30;10.38;;;6.10;99.90;;;;;;4936258;29;20079;-68
2021/12/10 06:50:22;;;;;;;20.88;11.60;;;6.00;99.90;;;;;;4937022;29;20034;-69
2021/12/10 06:53:28;;;;;;;16.85;9.27;;;6.10;99.90;;;;;;4936430;29;20050;-69
2021/12/10 06:56:34;;;;;;;16.42;9.00;;;6.10;99.90;;;;;;4937023;29;20043;-70
2021/12/10 06:59:39;;;;;;;17.27;9.43;;;6.20;99.90;;;;;;4936505;29;20063;-69
2021/12/10 07:02:44;;;;;;;15.98;8.13;;;6.10;99.90;;;;;;4936476;29;20051;-67
2021/12/10 07:05:50;;;;;;;14.27;8.02;;;6.30;99.90;;;;;;4935585;29;20055;-66
2021/12/10 07:08:56;;;;;;;15.40;7.38;;;6.50;99.90;;;;;;4936170;29;20436;-67
2021/12/10 07:12:00;;;;;;;13.82;7.40;;;6.50;99.90;;;;;;4936075;29;20055;-67
2021/12/10 07:15:09;;;;;;;14.75;7.55;;;6.50;99.90;;;;;;4935558;29;20063;-67
2021/12/10 07:18:14;;;;;;;14.32;8.70;;;6.30;99.90;;;;;;4935636;29;20050;-67
2021/12/10 07:21:18;;;;;;;20.45;13.23;;;6.40;99.90;;;;;;4935935;29;20050;-67
2021/12/10 07:24:23;;;;;;;13.55;9.48;;;6.50;99.90;;;;;;4936006;29;20524;-66
2021/12/10 07:27:28;;;;;;;17.15;9.73;;;6.60;99.90;;;;;;4935698;29;20054;-67
2021/12/10 07:30:33;;;;;;;14.50;8.82;;;6.60;99.90;;;;;;4935446;29;20042;-66
2021/12/10 07:33:42;;;;;;;16.10;10.63;;;6.50;99.90;;;;;;4935632;29;20050;-68
2021/12/10 07:36:46;;;;;;;61.15;36.33;;;6.60;99.90;;;;;;4934209;29;20086;-68
2021/12/10 07:39:50;;;;;;;33.45;21.42;;;6.70;99.90;;;;;;4935480;29;20147;-68
2021/12/10 07:42:54;;;;;;;17.13;11.60;;;6.70;99.90;;;;;;4935223;29;20062;-67
2021/12/10 07:45:58;;;;;;;17.55;11.50;;;6.80;99.90;;;;;;4935589;29;20043;-64
2021/12/10 07:49:04;;;;;;;20.25;8.98;;;6.90;99.90;;;;;;4935763;29;20124;-68
2021/12/10 07:52:16;;;;;;;16.90;9.10;;;7.00;99.90;;;;;;4935467;29;20392;-67
2021/12/10 07:55:22;;;;;;;109.82;20.05;;;7.10;99.90;;;;;;4934306;29;20361;-65
2021/12/10 07:58:26;;;;;;;23.90;10.00;;;7.10;99.90;;;;;;4935074;29;20054;-65
2021/12/10 08:01:31;;;;;;;18.00;10.73;;;7.20;99.90;;;;;;4935196;29;20054;-63
2021/12/10 08:04:36;;;;;;;26.92;15.82;;;7.20;99.90;;;;;;4934580;29;20050;-63
2021/12/10 08:07:41;;;;;;;18.25;10.48;;;7.30;99.90;;;;;;4934810;29;20387;-63
2021/12/10 08:10:47;;;;;;;19.63;10.38;;;7.40;99.90;;;;;;4934791;29;20050;-63
2021/12/10 08:13:51;;;;;;;14.68;8.25;;;7.50;99.90;;;;;;4934712;29;20046;-63
2021/12/10 08:16:55;;;;;;;16.33;9.82;;;7.60;99.90;;;;;;4934897;29;20042;-64
2021/12/10 08:20:01;;;;;;;16.15;9.82;;;7.70;99.90;;;;;;4934647;29;20051;-65
2021/12/10 08:23:06;;;;;;;16.27;10.43;;;7.90;99.90;;;;;;4934529;29;20043;-64
2021/12/10 08:26:12;;;;;;;21.13;11.02;;;8.10;99.90;;;;;;4934641;29;20062;-64
2021/12/10 08:29:19;;;;;;;23.17;12.55;;;8.20;99.90;;;;;;4934568;29;20055;-63
2021/12/10 08:32:24;;;;;;;22.92;13.07;;;8.30;99.90;;;;;;4934646;29;20047;-65
2021/12/10 08:35:31;;;;;;;26.38;15.10;;;8.40;99.90;;;;;;4934298;29;20054;-62
2021/12/10 08:38:37;;;;;;;25.30;15.80;;;8.60;99.90;;;;;;4934422;29;20113;-63
2021/12/10 08:41:42;;;;;;;22.85;13.52;;;8.80;99.90;;;;;;4934310;29;20051;-61
2021/12/10 08:44:46;;;;;;;30.65;16.83;;;8.90;99.90;;;;;;4934116;29;20392;-65
2021/12/10 08:47:51;;;;;;;24.25;15.20;;;9.20;99.90;;;;;;4933120;29;20059;-63
2021/12/10 08:51:00;;;;;;;23.08;15.52;;;9.40;99.90;;;;;;4934393;29;20047;-65
2021/12/10 08:54:05;;;;;;;21.02;16.42;;;9.50;99.90;;;;;;4934167;29;20151;-64
2021/12/10 08:57:10;;;;;;;21.63;13.90;;;9.70;99.90;;;;;;4934290;29;20047;-66
2021/12/10 09:00:16;;;;;;;19.70;12.32;;;9.90;99.90;;;;;;4933105;29;20392;-63
2021/12/10 09:03:19;;;;;;;23.60;14.10;;;10.10;99.90;;;;;;4934501;29;20199;-68
2021/12/10 09:06:27;;;;;;;27.27;15.02;;;10.20;99.90;;;;;;4934005;29;20047;-66
2021/12/10 09:09:31;;;;;;;27.25;13.30;;;10.30;99.90;;;;;;4934270;29;20537;-65
2021/12/10 09:12:37;;;;;;;22.48;12.95;;;10.40;99.90;;;;;;4934075;29;20051;-70
2021/12/10 09:15:45;;;;;;;21.85;11.00;;;10.40;99.90;;;;;;4934655;29;20063;-75
2021/12/10 09:18:52;;;;;;;15.68;9.27;;;10.50;99.90;;;;;;4935484;29;20047;-75
2021/12/10 09:21:57;;;;;;;17.15;8.38;;;10.80;99.90;;;;;;4933653;29;20046;-67
2021/12/10 09:25:04;;;;;;;10.73;7.13;;;10.80;99.10;;;;;;4934697;29;20054;-70
2021/12/10 09:28:08;;;;;;;14.98;7.60;;;10.90;99.10;;;;;;4933772;29;20055;-68
2021/12/10 09:31:14;;;;;;;11.38;7.10;;;11.00;98.80;;;;;;4934039;29;20051;-67
2021/12/10 09:34:19;;;;;;;13.77;6.63;;;11.10;98.30;;;;;;4933909;29;20503;-69
2021/12/10 09:37:24;;;;;;;12.98;6.57;;;11.20;98.20;;;;;;4933130;29;20043;-67
2021/12/10 09:40:34;;;;;;;12.50;7.32;;;11.20;98.90;;;;;;4933058;29;20070;-66
2021/12/10 09:43:39;;;;;;;12.20;7.57;;;11.40;98.90;;;;;;4932781;29;20050;-65
2021/12/10 09:46:45;;;;;;;15.60;7.50;;;11.50;98.80;;;;;;4932407;29;20038;-70
2021/12/10 09:49:52;;;;;;;11.50;7.68;;;11.60;98.70;;;;;;4932905;29;20051;-67
2021/12/10 09:52:59;;;;;;;18.60;8.73;;;11.70;98.50;;;;;;4933494;29;20047;-71
2021/12/10 09:56:04;;;;;;;13.30;7.50;;;11.90;97.90;;;;;;4933725;29;20392;-63
2021/12/10 09:59:08;;;;;;;12.90;7.70;;;12.00;97.70;;;;;;4933334;29;20535;-64
2021/12/10 10:02:13;;;;;;;13.32;7.45;;;12.00;97.60;;;;;;4932173;29;20043;-67
2021/12/10 10:05:18;;;;;;;11.35;7.60;;;12.10;97.80;;;;;;4933350;29;20054;-67
2021/12/10 10:08:25;;;;;;;15.43;7.78;;;12.20;97.10;;;;;;4933304;29;20440;-64
2021/12/10 10:11:34;;;;;;;10.40;6.25;;;12.20;96.60;;;;;;4933285;29;20399;-64
2021/12/10 10:14:40;;;;;;;11.93;6.40;;;12.20;96.40;;;;;;4933621;29;20059;-64
2021/12/10 10:17:45;;;;;;;9.15;6.15;;;12.20;96.20;;;;;;4934062;29;20294;-64
2021/12/10 10:20:54;;;;;;;9.48;5.43;;;12.30;95.00;;;;;;4935918;29;20055;-65
2021/12/10 10:23:59;;;;;;;11.93;5.43;;;12.40;94.60;;;;;;4936999;29;20502;-63
2021/12/10 10:27:19;;;;;;;13.32;5.28;;;12.60;94.40;;;;;;4937066;29;20506;-67
2021/12/10 10:30:37;;;;;;;14.70;5.88;;;12.70;93.50;;;;;;4936770;29;20388;-65
2021/12/10 10:33:41;;;;;;;8.02;5.53;;;12.70;93.50;;;;;;4936669;29;20047;-64
2021/12/10 10:36:45;;;;;;;7.80;4.88;;;12.70;93.40;;;;;;4936071;29;20058;-66
2021/12/10 10:39:51;;;;;;;8.75;3.63;;;12.80;92.60;;;;;;4936625;29;20059;-67
2021/12/10 10:42:56;;;;;;;6.95;3.15;;;12.80;91.30;;;;;;4936561;29;20063;-64
2021/12/10 10:46:00;;;;;;;6.10;3.20;;;12.80;90.90;;;;;;4936554;29;20043;-67
2021/12/10 10:49:05;;;;;;;5.78;3.42;;;12.80;90.60;;;;;;4936123;29;20051;-66
2021/12/10 10:52:33;;;;;;;6.88;3.45;;;12.80;90.40;;;;;;4936313;29;20055;-64
2021/12/10 10:56:02;;;;;;;6.95;3.15;;;12.70;90.20;;;;;;4934693;29;20046;-65
2021/12/10 10:59:17;;;;;;;8.65;3.15;;;12.70;90.40;;;;;;4936011;29;20400;-65
2021/12/10 11:02:21;;;;;;;9.45;3.10;;;12.60;90.10;;;;;;4936175;29;20392;-66
2021/12/10 11:05:25;;;;;;;5.68;2.80;;;12.50;90.20;;;;;;4935431;29;20050;-67
2021/12/10 11:08:39;;;;;;;4.53;1.90;;;12.50;90.20;;;;;;4935998;29;20058;-67
2021/12/10 11:12:08;;;;;;;4.88;2.42;;;12.50;90.00;;;;;;4935079;29;20059;-69
2021/12/10 11:15:16;;;;;;;8.52;2.42;;;12.60;90.10;;;;;;4935376;29;20054;-67
2021/12/10 11:18:20;;;;;;;6.20;1.73;;;12.70;89.50;;;;;;4935747;29;20042;-69
2021/12/10 11:21:36;;;;;;;5.13;1.83;;;12.60;88.80;;;;;;4935688;29;20047;-70
2021/12/10 11:24:45;;;;;;;3.05;1.52;;;12.60;87.90;;;;;;4935666;29;20038;-64
2021/12/10 11:27:50;;;;;;;4.45;1.60;;;12.60;88.00;;;;;;4935376;29;20058;-65
2021/12/10 11:31:03;;;;;;;3.92;1.27;;;12.50;87.60;;;;;;4935181;29;20046;-66
2021/12/10 11:34:06;;;;;;;8.50;1.75;;;12.50;87.30;;;;;;4935288;29;20402;-66
2021/12/10 11:37:12;;;;;;;2.17;1.27;;;12.50;86.30;;;;;;4933787;29;20047;-64
2021/12/10 11:40:45;;;;;;;4.45;1.50;;;12.50;86.10;;;;;;4934333;29;20539;-65
2021/12/10 11:47:28;;;;;;;7.80;3.35;;;12.50;87.20;;;;;;4934883;29;20055;-66
2021/12/10 11:50:35;;;;;;;8.57;2.50;;;12.60;87.80;;;;;;4935327;29;20515;-67
2021/12/10 11:53:47;;;;;;;3.83;1.55;;;12.70;87.10;;;;;;4935003;29;20047;-66
2021/12/10 11:57:04;;;;;;;4.35;1.33;;;12.70;85.50;;;;;;4935194;29;20376;-68
2021/12/10 12:00:40;;;;;;;6.47;1.10;;;12.80;84.70;;;;;;4935057;29;20468;-68
2021/12/10 12:03:44;;;;;;;5.75;1.50;;;12.70;85.20;;;;;;4934210;29;20050;-68
2021/12/10 12:07:15;;;;;;;4.88;1.98;;;12.60;85.60;;;;;;4934463;29;20507;-68
2021/12/10 12:10:23;;;;;;;4.65;2.10;;;12.60;86.80;;;;;;4934118;29;20059;-68
2021/12/10 12:16:37;;;;;;;3.90;2.28;;;12.50;90.00;;;;;;4935191;29;20055;-67
2021/12/10 12:19:41;;;;;;;7.32;2.13;;;12.40;91.60;;;;;;4934026;29;20074;-67
2021/12/10 12:26:25;;;;;;;7.45;2.28;;;12.30;93.60;;;;;;4934951;29;20058;-67
2021/12/10 12:29:55;;;;;;;9.38;3.45;;;12.10;94.70;;;;;;4935005;29;20050;-66
2021/12/10 12:33:00;;;;;;;9.13;3.80;;;11.90;95.90;;;;;;4934250;29;20055;-65
2021/12/10 12:36:13;;;;;;;13.45;6.20;;;11.90;96.80;;;;;;4934078;29;20070;-65
2021/12/10 12:39:40;;;;;;;8.85;2.70;;;11.80;97.50;;;;;;4934912;29;20491;-65
2021/12/10 12:42:48;;;;;;;7.00;2.42;;;11.60;97.30;;;;;;4934390;29;20050;-65
2021/12/10 12:46:05;;;;;;;5.93;2.80;;;11.50;97.50;;;;;;4933714;29;20046;-67
2021/12/10 12:49:10;;;;;;;9.35;3.78;;;11.50;96.80;;;;;;4934321;29;20054;-66
2021/12/10 12:52:24;;;;;;;7.03;3.58;;;11.50;96.00;;;;;;4934252;29;20062;-66
2021/12/10 12:55:36;;;;;;;13.25;5.35;;;11.50;96.40;;;;;;4933973;29;20047;-65
2021/12/10 12:58:59;;;;;;;12.40;5.10;;;11.50;95.80;;;;;;4934045;29;20059;-67
2021/12/10 13:02:08;;;;;;;8.80;4.20;;;11.50;96.00;;;;;;4934036;29;20475;-69
2021/12/10 13:05:12;;;;;;;4.97;3.70;;;11.50;96.10;;;;;;4933989;29;20400;-68
2021/12/10 13:08:20;;;;;;;6.55;4.13;;;11.50;95.20;;;;;;4934130;29;20056;-68
2021/12/10 13:15:01;;;;;;;7.80;4.55;;;11.50;95.50;;;;;;4934664;29;20120;-68
2021/12/10 13:18:08;;;;;;;8.45;5.30;;;11.50;95.10;;;;;;4934177;29;20043;-67
2021/12/10 13:21:13;;;;;;;9.95;5.10;;;11.50;95.30;;;;;;4934294;29;20361;-67
2021/12/10 13:24:17;;;;;;;16.92;6.22;;;11.50;95.50;;;;;;4933888;29;20054;-66
2021/12/10 13:27:24;;;;;;;9.80;4.85;;;11.50;95.50;;;;;;4932984;29;20404;-66
2021/12/10 13:30:41;;;;;;;12.55;6.00;;;11.50;95.00;;;;;;4932965;29;20059;-65
2021/12/10 13:33:46;;;;;;;9.32;6.15;;;11.50;95.30;;;;;;4932926;29;20055;-63
2021/12/10 13:36:50;;;;;;;9.43;6.15;;;11.50;94.70;;;;;;4932672;29;20067;-66
2021/12/10 13:39:58;;;;;;;13.30;5.70;;;11.40;95.10;;;;;;4933423;29;20051;-65
2021/12/10 13:43:05;;;;;;;15.63;5.82;;;11.40;95.50;;;;;;4933493;29;20050;-65
2021/12/10 13:46:14;;;;;;;10.15;6.10;;;11.40;95.40;;;;;;4933656;29;20058;-65
2021/12/10 13:49:18;;;;;;;9.98;6.28;;;11.50;95.70;;;;;;4932213;29;20071;-63
2021/12/10 13:53:16;;;;;;;13.38;5.95;;;11.40;95.40;;;;;;4933899;29;20519;-64
2021/12/10 13:56:21;;;;;;;12.30;6.30;;;11.40;95.60;;;;;;4931027;29;20404;-64
2021/12/10 13:59:28;;;;;;;12.68;6.43;;;11.40;95.20;;;;;;4937267;29;20042;-64
2021/12/10 14:02:36;;;;;;;15.50;7.60;;;11.40;95.90;;;;;;4936947;29;20046;-64
2021/12/10 14:05:42;;;;;;;15.65;7.45;;;11.40;95.60;;;;;;4936909;29;20269;-65
2021/12/10 14:09:10;;;;;;;15.93;7.07;;;11.40;95.90;;;;;;4936691;29;20054;-65
2021/12/10 14:12:41;;;;;;;18.15;8.13;;;11.40;95.70;;;;;;4936968;29;20395;-64
2021/12/10 14:15:51;;;;;;;22.05;9.95;;;11.40;95.90;;;;;;4936977;29;20062;-66
2021/12/10 14:18:55;;;;;;;21.27;11.43;;;11.30;96.30;;;;;;4936972;29;20392;-64
2021/12/10 14:21:59;;;;;;;28.63;17.83;;;11.30;96.80;;;;;;4936140;29;20411;-65
2021/12/10 14:25:36;;;;;;;28.90;14.55;;;11.20;96.80;;;;;;4936728;29;20050;-67
2021/12/10 14:28:44;;;;;;;24.73;11.93;;;11.20;96.80;;;;;;4935814;29;20523;-66
2021/12/10 14:31:49;;;;;;;24.40;12.98;;;11.10;97.00;;;;;;4936763;29;20043;-65
2021/12/10 14:35:13;;;;;;;24.38;13.30;;;11.10;97.20;;;;;;4936452;29;20059;-65
2021/12/10 14:38:33;;;;;;;26.27;15.27;;;11.10;97.20;;;;;;4936562;29;20047;-64
2021/12/10 14:41:47;;;;;;;26.10;13.38;;;11.10;97.50;;;;;;4936309;29;20058;-66
2021/12/10 14:45:09;;;;;;;25.30;11.60;;;11.10;97.30;;;;;;4935601;29;20400;-65
2021/12/10 14:48:13;;;;;;;25.13;13.60;;;11.10;97.50;;;;;;4935956;29;20063;-64
2021/12/10 14:51:18;;;;;;;17.25;11.38;;;11.10;97.80;;;;;;4936030;29;20384;-63
2021/12/10 14:54:22;;;;;;;18.25;9.57;;;11.10;97.60;;;;;;4936506;29;20046;-65
2021/12/10 14:57:53;;;;;;;22.17;10.05;;;11.10;96.30;;;;;;4936214;29;20113;-64
2021/12/10 15:01:08;;;;;;;21.42;9.55;;;11.20;96.00;;;;;;4936019;29;20051;-65
2021/12/10 15:04:18;;;;;;;20.17;9.25;;;11.20;96.10;;;;;;4934769;29;20051;-65
2021/12/10 15:07:28;;;;;;;21.70;8.40;;;11.20;96.20;;;;;;4936028;29;20055;-63
2021/12/10 15:10:59;;;;;;;16.85;8.20;;;11.30;96.20;;;;;;4935840;29;20054;-64
2021/12/10 15:14:19;;;;;;;20.88;9.93;;;11.30;96.10;;;;;;4935945;29;20067;-63
2021/12/10 15:17:23;;;;;;;20.23;8.93;;;11.30;96.20;;;;;;4935640;29;20043;-63
2021/12/10 15:20:32;;;;;;;17.50;9.00;;;11.30;96.10;;;;;;4935536;29;20055;-64
2021/12/10 15:23:37;;;;;;;21.90;9.88;;;11.30;96.10;;;;;;4935775;29;20046;-68
2021/12/10 15:26:43;;;;;;;21.23;9.60;;;11.30;96.10;;;;;;4935419;29;20487;-64
2021/12/10 15:29:55;;;;;;;18.88;8.90;;;11.30;95.90;;;;;;4935758;29;20404;-65
2021/12/10 15:33:04;;;;;;;25.95;8.60;;;11.30;96.30;;;;;;4935328;29;20047;-64
2021/12/10 15:36:10;;;;;;;19.60;9.13;;;11.30;96.70;;;;;;4935215;29;20078;-64
2021/12/10 15:39:14;;;;;;;20.05;6.30;;;11.30;97.10;;;;;;4934579;29;20039;-65
2021/12/10 15:42:22;;;;;;;17.05;7.57;;;11.30;96.50;;;;;;4935319;29;20302;-70
2021/12/10 15:45:28;;;;;;;18.98;7.68;;;11.30;96.70;;;;;;4934950;29;20058;-66
2021/12/10 15:48:35;;;;;;;20.25;5.88;;;11.20;97.10;;;;;;4934881;29;20408;-64
2021/12/10 15:51:44;;;;;;;9.50;2.58;;;11.20;97.00;;;;;;4935351;29;20058;-64
2021/12/10 15:54:59;;;;;;;8.13;2.85;;;11.20;96.30;;;;;;4935238;29;20404;-65
2021/12/10 15:58:04;;;;;;;7.75;2.42;;;11.20;96.40;;;;;;4933639;29;20043;-64
2021/12/10 16:01:15;;;;;;;14.32;3.78;;;11.20;96.40;;;;;;4934786;29;20054;-65
2021/12/10 16:04:23;;;;;;;7.18;2.00;;;11.20;96.30;;;;;;4935130;29;20067;-65
2021/12/10 16:07:42;;;;;;;5.72;2.03;;;11.20;95.90;;;;;;4934594;29;20518;-65
2021/12/10 16:10:51;;;;;;;6.40;1.90;;;11.20;96.20;;;;;;4934728;29;20064;-67
2021/12/10 16:13:56;;;;;;;6.30;1.73;;;11.10;95.70;;;;;;4934908;29;20047;-68
2021/12/10 16:17:03;;;;;;;8.65;2.80;;;11.10;96.00;;;;;;4933729;29;20051;-67
2021/12/10 16:20:26;;;;;;;10.10;3.50;;;11.10;96.20;;;;;;4934106;29;20046;-63
2021/12/10 16:23:39;;;;;;;8.88;6.28;;;11.10;96.30;;;;;;4934403;29;20059;-64
2021/12/10 16:26:49;;;;;;;9.25;3.30;;;11.10;96.70;;;;;;4934056;29;20050;-63
2021/12/10 16:29:57;;;;;;;5.82;1.20;;;11.00;95.90;;;;;;4934469;29;20063;-63
2021/12/10 16:33:04;;;;;;;7.35;1.48;;;10.90;95.10;;;;;;4934428;29;20067;-62
2021/12/10 16:36:13;;;;;;;6.15;2.00;;;10.90;95.70;;;;;;4934333;29;20054;-63
2021/12/10 16:39:17;;;;;;;5.32;1.98;;;10.80;96.10;;;;;;4933954;29;20043;-65
2021/12/10 16:42:21;;;;;;;6.95;2.38;;;10.70;96.80;;;;;;4934538;29;20056;-64